IBE06EE LEMD-LICC
Flight info
| Callsign | IBE06EE |
|---|---|
| Flight time | 2h 5m |
| Altitude | 37000 |
| Route | PINAR N870 BCN N725 OSPOK DCT NOLVI DCT ORKUM DCT ELSAG DCT ALG DCT ERPEM DCT BEKIV DCT ENEPA M871 LIBRO |
| Aircraft | A320/M-SDE3FGHIRWY/LB1 |
Departure
| Time | 2026-05-07 11:11 |
|---|---|
| Airport | Adolfo Suárez Madrid–Barajas Airport (LEMD) |
Arrival
| Time | 2026-05-07 13:16 |
|---|---|
| Airport | Catania-Fontanarossa Airport (LICC) |
| Time | Latitude | Longitude | Altitude | Speed | Heading |
|---|---|---|---|---|---|
| 2026-05-07 10:41 | 40.49188 | -3.58966 | 2022 ft | 0 kts | 270° |
| 2026-05-07 10:58 | 40.49188 | -3.58960 | 2049 ft | 3 kts | 269° |
| 2026-05-07 10:58 | 40.49189 | -3.58925 | 2026 ft | 4 kts | 262° |
| 2026-05-07 10:58 | 40.49196 | -3.58893 | 2032 ft | 4 kts | 230° |
| 2026-05-07 10:59 | 40.49209 | -3.58882 | 2030 ft | 0 kts | 179° |
| 2026-05-07 11:01 | 40.49173 | -3.58881 | 2022 ft | 8 kts | 179° |
| 2026-05-07 11:01 | 40.49103 | -3.58880 | 2022 ft | 12 kts | 179° |
| 2026-05-07 11:01 | 40.49011 | -3.58879 | 2022 ft | 15 kts | 179° |
| 2026-05-07 11:01 | 40.48899 | -3.58878 | 2025 ft | 17 kts | 179° |
| 2026-05-07 11:02 | 40.48796 | -3.58877 | 2022 ft | 14 kts | 178° |
| 2026-05-07 11:02 | 40.48759 | -3.58774 | 2022 ft | 16 kts | 89° |
| 2026-05-07 11:02 | 40.48760 | -3.58620 | 2022 ft | 18 kts | 89° |
| 2026-05-07 11:02 | 40.48760 | -3.58432 | 2016 ft | 23 kts | 90° |
| 2026-05-07 11:03 | 40.48760 | -3.58309 | 2012 ft | 13 kts | 90° |
| 2026-05-07 11:03 | 40.48761 | -3.58169 | 2007 ft | 11 kts | 90° |
| 2026-05-07 11:03 | 40.48792 | -3.58056 | 2003 ft | 17 kts | 21° |
| 2026-05-07 11:03 | 40.48857 | -3.57946 | 1999 ft | 20 kts | 93° |
| 2026-05-07 11:04 | 40.48858 | -3.57737 | 1992 ft | 25 kts | 90° |
| 2026-05-07 11:04 | 40.48858 | -3.57576 | 1990 ft | 18 kts | 90° |
| 2026-05-07 11:04 | 40.48859 | -3.57395 | 1986 ft | 22 kts | 90° |
| 2026-05-07 11:04 | 40.48860 | -3.57178 | 1982 ft | 26 kts | 90° |
| 2026-05-07 11:05 | 40.48860 | -3.57004 | 1979 ft | 13 kts | 90° |
| 2026-05-07 11:05 | 40.48861 | -3.56865 | 1977 ft | 18 kts | 90° |
| 2026-05-07 11:05 | 40.48861 | -3.56686 | 1974 ft | 21 kts | 90° |
| 2026-05-07 11:05 | 40.48862 | -3.56478 | 1968 ft | 12 kts | 90° |
| 2026-05-07 11:06 | 40.48862 | -3.56340 | 1964 ft | 13 kts | 90° |
| 2026-05-07 11:06 | 40.48912 | -3.56245 | 1962 ft | 7 kts | 7° |
| 2026-05-07 11:06 | 40.48919 | -3.56244 | 1962 ft | 0 kts | 3° |
| 2026-05-07 11:07 | 40.48958 | -3.56244 | 1962 ft | 9 kts | 359° |
| 2026-05-07 11:07 | 40.49031 | -3.56245 | 1962 ft | 12 kts | 360° |
| 2026-05-07 11:07 | 40.49127 | -3.56245 | 1962 ft | 15 kts | 360° |
| 2026-05-07 11:08 | 40.49241 | -3.56245 | 1961 ft | 18 kts | 360° |
| 2026-05-07 11:08 | 40.49374 | -3.56246 | 1962 ft | 20 kts | 359° |
| 2026-05-07 11:08 | 40.49469 | -3.56247 | 1961 ft | 22 kts | 360° |
| 2026-05-07 11:08 | 40.49627 | -3.56248 | 1961 ft | 24 kts | 360° |
| 2026-05-07 11:09 | 40.49784 | -3.56249 | 1961 ft | 13 kts | 359° |
| 2026-05-07 11:09 | 40.49876 | -3.56250 | 1961 ft | 12 kts | 360° |
| 2026-05-07 11:09 | 40.49940 | -3.56182 | 1959 ft | 16 kts | 88° |
| 2026-05-07 11:09 | 40.49939 | -3.56085 | 1958 ft | 8 kts | 90° |
| 2026-05-07 11:10 | 40.49954 | -3.56012 | 1961 ft | 8 kts | 68° |
| 2026-05-07 11:10 | 40.49989 | -3.55958 | 1959 ft | 7 kts | 39° |
| 2026-05-07 11:10 | 40.50071 | -3.55920 | 1960 ft | 34 kts | 5° |
| 2026-05-07 11:10 | 40.50551 | -3.55925 | 1965 ft | 101 kts | 360° |
| 2026-05-07 11:11 | 40.51445 | -3.55933 | 1950 ft | 154 kts | 360° |
| 2026-05-07 11:11 | 40.52606 | -3.55934 | 2279 ft | 173 kts | 360° |
| 2026-05-07 11:11 | 40.53804 | -3.55923 | 3018 ft | 172 kts | 6° |
| 2026-05-07 11:11 | 40.54987 | -3.55597 | 3549 ft | 181 kts | 18° |
| 2026-05-07 11:12 | 40.56264 | -3.55081 | 3812 ft | 203 kts | 19° |
| 2026-05-07 11:12 | 40.57684 | -3.54506 | 4126 ft | 222 kts | 20° |
| 2026-05-07 11:12 | 40.59154 | -3.53852 | 4831 ft | 224 kts | 28° |
| 2026-05-07 11:12 | 40.60459 | -3.52660 | 5300 ft | 239 kts | 43° |
| 2026-05-07 11:13 | 40.61788 | -3.51166 | 5656 ft | 262 kts | 43° |
| 2026-05-07 11:13 | 40.63208 | -3.49561 | 6282 ft | 274 kts | 42° |
| 2026-05-07 11:13 | 40.64674 | -3.47909 | 6988 ft | 281 kts | 43° |
| 2026-05-07 11:13 | 40.66177 | -3.46223 | 7759 ft | 286 kts | 42° |
| 2026-05-07 11:14 | 40.67702 | -3.44520 | 8555 ft | 290 kts | 42° |
| 2026-05-07 11:14 | 40.69255 | -3.42783 | 9353 ft | 295 kts | 42° |
| 2026-05-07 11:14 | 40.70822 | -3.41024 | 10136 ft | 298 kts | 42° |
| 2026-05-07 11:14 | 40.72433 | -3.39213 | 10611 ft | 314 kts | 42° |
| 2026-05-07 11:15 | 40.74156 | -3.37276 | 10826 ft | 337 kts | 41° |
| 2026-05-07 11:15 | 40.76005 | -3.35197 | 11024 ft | 359 kts | 41° |
| 2026-05-07 11:15 | 40.77937 | -3.33028 | 11530 ft | 369 kts | 41° |
| 2026-05-07 11:15 | 40.79910 | -3.30815 | 12204 ft | 374 kts | 41° |
| 2026-05-07 11:16 | 40.81905 | -3.28577 | 12872 ft | 379 kts | 41° |
| 2026-05-07 11:16 | 40.83777 | -3.26111 | 13549 ft | 382 kts | 52° |
| 2026-05-07 11:16 | 40.85269 | -3.23201 | 14164 ft | 384 kts | 64° |
| 2026-05-07 11:16 | 40.86314 | -3.19955 | 14778 ft | 385 kts | 75° |
| 2026-05-07 11:17 | 40.87004 | -3.16533 | 15382 ft | 387 kts | 77° |
| 2026-05-07 11:17 | 40.87679 | -3.13072 | 15963 ft | 391 kts | 77° |
| 2026-05-07 11:17 | 40.88364 | -3.09576 | 16556 ft | 395 kts | 77° |
| 2026-05-07 11:17 | 40.89057 | -3.06049 | 17140 ft | 398 kts | 77° |
| 2026-05-07 11:18 | 40.89755 | -3.02504 | 17749 ft | 400 kts | 77° |
| 2026-05-07 11:18 | 40.90458 | -2.98931 | 18319 ft | 403 kts | 77° |
| 2026-05-07 11:18 | 40.91165 | -2.95335 | 18814 ft | 406 kts | 77° |
| 2026-05-07 11:18 | 40.91874 | -2.91714 | 19305 ft | 409 kts | 77° |
| 2026-05-07 11:19 | 40.92587 | -2.88060 | 19784 ft | 412 kts | 78° |
| 2026-05-07 11:19 | 40.93303 | -2.84383 | 20248 ft | 415 kts | 78° |
| 2026-05-07 11:19 | 40.94024 | -2.80672 | 20701 ft | 418 kts | 78° |
| 2026-05-07 11:19 | 40.94747 | -2.76939 | 21146 ft | 421 kts | 78° |
| 2026-05-07 11:20 | 40.95475 | -2.73174 | 21592 ft | 424 kts | 78° |
| 2026-05-07 11:20 | 40.96206 | -2.69381 | 22045 ft | 427 kts | 78° |
| 2026-05-07 11:20 | 40.96942 | -2.65564 | 22468 ft | 430 kts | 78° |
| 2026-05-07 11:20 | 40.97685 | -2.61712 | 22893 ft | 433 kts | 78° |
| 2026-05-07 11:21 | 40.98431 | -2.57837 | 23319 ft | 436 kts | 78° |
| 2026-05-07 11:21 | 40.99172 | -2.53981 | 23705 ft | 439 kts | 78° |
| 2026-05-07 11:21 | 40.99926 | -2.50051 | 24066 ft | 442 kts | 78° |
| 2026-05-07 11:21 | 41.00682 | -2.46093 | 24419 ft | 445 kts | 78° |
| 2026-05-07 11:22 | 41.01439 | -2.42110 | 24763 ft | 447 kts | 79° |
| 2026-05-07 11:22 | 41.02198 | -2.38103 | 25107 ft | 450 kts | 79° |
| 2026-05-07 11:22 | 41.02960 | -2.34070 | 25449 ft | 453 kts | 79° |
| 2026-05-07 11:22 | 41.03726 | -2.30011 | 25776 ft | 456 kts | 79° |
| 2026-05-07 11:23 | 41.04499 | -2.25927 | 26060 ft | 459 kts | 79° |
| 2026-05-07 11:23 | 41.05278 | -2.21808 | 26374 ft | 462 kts | 79° |
| 2026-05-07 11:23 | 41.06059 | -2.17663 | 26691 ft | 465 kts | 79° |
| 2026-05-07 11:23 | 41.06839 | -2.13497 | 27006 ft | 467 kts | 79° |
| 2026-05-07 11:24 | 41.07634 | -2.09245 | 27325 ft | 470 kts | 79° |
| 2026-05-07 11:24 | 41.08411 | -2.05095 | 27609 ft | 472 kts | 79° |
| 2026-05-07 11:24 | 41.09203 | -2.00860 | 27909 ft | 474 kts | 79° |
| 2026-05-07 11:24 | 41.10007 | -1.96551 | 28206 ft | 477 kts | 79° |
| 2026-05-07 11:25 | 41.10802 | -1.92275 | 28483 ft | 479 kts | 79° |
| 2026-05-07 11:25 | 41.11599 | -1.87973 | 28721 ft | 481 kts | 79° |
| 2026-05-07 11:25 | 41.12396 | -1.83658 | 29102 ft | 481 kts | 79° |
| 2026-05-07 11:25 | 41.13180 | -1.79412 | 29524 ft | 480 kts | 80° |
| 2026-05-07 11:26 | 41.13970 | -1.75118 | 29939 ft | 479 kts | 80° |
| 2026-05-07 11:26 | 41.14759 | -1.70820 | 30290 ft | 479 kts | 80° |
| 2026-05-07 11:26 | 41.15546 | -1.66522 | 30606 ft | 479 kts | 80° |
| 2026-05-07 11:26 | 41.16329 | -1.62230 | 30939 ft | 479 kts | 80° |
| 2026-05-07 11:27 | 41.17108 | -1.57936 | 31249 ft | 479 kts | 80° |
| 2026-05-07 11:27 | 41.17888 | -1.53640 | 31571 ft | 479 kts | 81° |
| 2026-05-07 11:27 | 41.18665 | -1.49342 | 31846 ft | 479 kts | 80° |
| 2026-05-07 11:27 | 41.19420 | -1.45159 | 32131 ft | 480 kts | 81° |
| 2026-05-07 11:28 | 41.20197 | -1.40855 | 32446 ft | 480 kts | 81° |
| 2026-05-07 11:28 | 41.20974 | -1.36549 | 32762 ft | 479 kts | 81° |
| 2026-05-07 11:28 | 41.21750 | -1.32244 | 33089 ft | 479 kts | 81° |
| 2026-05-07 11:28 | 41.22525 | -1.27941 | 33413 ft | 479 kts | 81° |
| 2026-05-07 11:29 | 41.23301 | -1.23639 | 33734 ft | 479 kts | 81° |
| 2026-05-07 11:29 | 41.24075 | -1.19336 | 34044 ft | 479 kts | 81° |
| 2026-05-07 11:29 | 41.24842 | -1.15038 | 34320 ft | 478 kts | 81° |
| 2026-05-07 11:29 | 41.25604 | -1.10733 | 34534 ft | 479 kts | 81° |
| 2026-05-07 11:30 | 41.26365 | -1.06423 | 34772 ft | 479 kts | 81° |
| 2026-05-07 11:30 | 41.27124 | -1.02109 | 35028 ft | 479 kts | 81° |
| 2026-05-07 11:30 | 41.27885 | -0.97795 | 35285 ft | 479 kts | 81° |
| 2026-05-07 11:30 | 41.28646 | -0.93484 | 35551 ft | 479 kts | 81° |
| 2026-05-07 11:31 | 41.29408 | -0.89173 | 35803 ft | 478 kts | 80° |
| 2026-05-07 11:31 | 41.30167 | -0.84870 | 36051 ft | 478 kts | 80° |
| 2026-05-07 11:31 | 41.30932 | -0.80511 | 36293 ft | 477 kts | 80° |
| 2026-05-07 11:31 | 41.31674 | -0.76267 | 36505 ft | 477 kts | 80° |
| 2026-05-07 11:32 | 41.33170 | -0.67645 | 36847 ft | 479 kts | 80° |
| 2026-05-07 11:32 | 41.33917 | -0.63322 | 36957 ft | 481 kts | 80° |
| 2026-05-07 11:33 | 41.35249 | -0.54559 | 36967 ft | 477 kts | 88° |
| 2026-05-07 11:33 | 41.35324 | -0.45862 | 36972 ft | 473 kts | 94° |
| 2026-05-07 11:34 | 41.35255 | -0.37053 | 36969 ft | 473 kts | 94° |
| 2026-05-07 11:34 | 41.35196 | -0.28308 | 36969 ft | 473 kts | 94° |
| 2026-05-07 11:35 | 41.35125 | -0.19557 | 36971 ft | 473 kts | 95° |
| 2026-05-07 11:35 | 41.35039 | -0.10812 | 36973 ft | 473 kts | 95° |
| 2026-05-07 11:36 | 41.34953 | -0.02061 | 36979 ft | 473 kts | 95° |
| 2026-05-07 11:36 | 41.34861 | 0.06695 | 36960 ft | 474 kts | 95° |
| 2026-05-07 11:37 | 41.34752 | 0.15465 | 36952 ft | 474 kts | 95° |
| 2026-05-07 11:37 | 41.34637 | 0.24247 | 36952 ft | 475 kts | 95° |
| 2026-05-07 11:38 | 41.34526 | 0.33039 | 36959 ft | 475 kts | 95° |
| 2026-05-07 11:38 | 41.34405 | 0.41840 | 36947 ft | 476 kts | 95° |
| 2026-05-07 11:39 | 41.34273 | 0.50647 | 36965 ft | 477 kts | 96° |
| 2026-05-07 11:39 | 41.34134 | 0.59481 | 36974 ft | 478 kts | 96° |
| 2026-05-07 11:40 | 41.33987 | 0.68256 | 36980 ft | 478 kts | 96° |
| 2026-05-07 11:40 | 41.33839 | 0.77096 | 36965 ft | 478 kts | 96° |
| 2026-05-07 11:41 | 41.33682 | 0.85940 | 36970 ft | 478 kts | 96° |
| 2026-05-07 11:41 | 41.33509 | 0.94802 | 36988 ft | 479 kts | 96° |
| 2026-05-07 11:42 | 41.33333 | 1.03673 | 36988 ft | 479 kts | 96° |
| 2026-05-07 11:42 | 41.33160 | 1.12538 | 36997 ft | 479 kts | 96° |
| 2026-05-07 11:43 | 41.32977 | 1.21399 | 36981 ft | 480 kts | 96° |
| 2026-05-07 11:43 | 41.32780 | 1.30278 | 36984 ft | 480 kts | 96° |
| 2026-05-07 11:44 | 41.32584 | 1.39162 | 36990 ft | 481 kts | 96° |
| 2026-05-07 11:44 | 41.32378 | 1.48055 | 36994 ft | 481 kts | 97° |
| 2026-05-07 11:45 | 41.32162 | 1.56942 | 36979 ft | 481 kts | 97° |
| 2026-05-07 11:45 | 41.31949 | 1.65849 | 36985 ft | 482 kts | 97° |
| 2026-05-07 11:46 | 41.31719 | 1.74766 | 36996 ft | 483 kts | 97° |
| 2026-05-07 11:46 | 41.31480 | 1.83700 | 37004 ft | 483 kts | 97° |
| 2026-05-07 11:47 | 41.31235 | 1.92625 | 37000 ft | 483 kts | 97° |
| 2026-05-07 11:47 | 41.30981 | 2.01569 | 37011 ft | 483 kts | 97° |
| 2026-05-07 11:48 | 41.30649 | 2.10439 | 37017 ft | 480 kts | 103° |
| 2026-05-07 11:48 | 41.29340 | 2.19129 | 37021 ft | 475 kts | 108° |
| 2026-05-07 11:49 | 41.27920 | 2.27720 | 37023 ft | 476 kts | 108° |
| 2026-05-07 11:49 | 41.26514 | 2.36262 | 37001 ft | 476 kts | 108° |
| 2026-05-07 11:50 | 41.25088 | 2.44862 | 37002 ft | 477 kts | 108° |
| 2026-05-07 11:50 | 41.23648 | 2.53462 | 37003 ft | 477 kts | 108° |
| 2026-05-07 11:51 | 41.22433 | 2.60667 | 37005 ft | 477 kts | 108° |
| 2026-05-07 11:51 | 41.20978 | 2.69264 | 36982 ft | 477 kts | 108° |
| 2026-05-07 11:52 | 41.19518 | 2.77880 | 36990 ft | 479 kts | 108° |
| 2026-05-07 11:52 | 41.18057 | 2.86453 | 36998 ft | 479 kts | 108° |
| 2026-05-07 11:53 | 41.16576 | 2.95081 | 37002 ft | 480 kts | 108° |
| 2026-05-07 11:53 | 41.15089 | 3.03718 | 37008 ft | 480 kts | 108° |
| 2026-05-07 11:54 | 41.13599 | 3.12353 | 37001 ft | 480 kts | 109° |
| 2026-05-07 11:54 | 41.12096 | 3.20994 | 37003 ft | 481 kts | 109° |
| 2026-05-07 11:55 | 41.10586 | 3.29642 | 37008 ft | 481 kts | 109° |
| 2026-05-07 11:55 | 41.09068 | 3.38285 | 37011 ft | 481 kts | 109° |
| 2026-05-07 11:56 | 41.07543 | 3.46925 | 36988 ft | 481 kts | 109° |
| 2026-05-07 11:56 | 41.06014 | 3.55562 | 36996 ft | 482 kts | 109° |
| 2026-05-07 11:57 | 41.04485 | 3.64212 | 36999 ft | 482 kts | 109° |
| 2026-05-07 11:57 | 41.02946 | 3.72845 | 37005 ft | 482 kts | 109° |
| 2026-05-07 11:58 | 41.01394 | 3.81477 | 36982 ft | 482 kts | 109° |
| 2026-05-07 11:58 | 40.99830 | 3.90115 | 36982 ft | 483 kts | 109° |
| 2026-05-07 11:59 | 40.98266 | 3.98703 | 36996 ft | 483 kts | 109° |
| 2026-05-07 11:59 | 40.96690 | 4.07353 | 37000 ft | 484 kts | 109° |
| 2026-05-07 12:00 | 40.95113 | 4.16010 | 37001 ft | 484 kts | 110° |
| 2026-05-07 12:00 | 40.93518 | 4.24664 | 36982 ft | 485 kts | 110° |
| 2026-05-07 12:01 | 40.91909 | 4.33337 | 36988 ft | 486 kts | 110° |
| 2026-05-07 12:01 | 40.90295 | 4.42023 | 36995 ft | 487 kts | 110° |
| 2026-05-07 12:02 | 40.88677 | 4.50712 | 37000 ft | 487 kts | 110° |
| 2026-05-07 12:02 | 40.87056 | 4.59402 | 36984 ft | 487 kts | 110° |
| 2026-05-07 12:03 | 40.85555 | 4.68147 | 36989 ft | 493 kts | 102° |
| 2026-05-07 12:03 | 40.84733 | 4.77150 | 36994 ft | 494 kts | 102° |
| 2026-05-07 12:04 | 40.83906 | 4.86159 | 36999 ft | 494 kts | 102° |
| 2026-05-07 12:04 | 40.83059 | 4.95169 | 37004 ft | 494 kts | 102° |
| 2026-05-07 12:05 | 40.82207 | 5.04185 | 36991 ft | 495 kts | 102° |
| 2026-05-07 12:05 | 40.81349 | 5.13218 | 36996 ft | 496 kts | 102° |
| 2026-05-07 12:06 | 40.80494 | 5.22195 | 36998 ft | 496 kts | 102° |
| 2026-05-07 12:06 | 40.79619 | 5.31222 | 37002 ft | 496 kts | 103° |
| 2026-05-07 12:07 | 40.78733 | 5.40253 | 36979 ft | 497 kts | 103° |
| 2026-05-07 12:07 | 40.77841 | 5.49299 | 36968 ft | 497 kts | 103° |
| 2026-05-07 12:08 | 40.76947 | 5.58350 | 36972 ft | 498 kts | 103° |
| 2026-05-07 12:08 | 40.76036 | 5.67478 | 36982 ft | 499 kts | 103° |
| 2026-05-07 12:09 | 40.75123 | 5.76556 | 36972 ft | 500 kts | 103° |
| 2026-05-07 12:09 | 40.74201 | 5.85594 | 36977 ft | 501 kts | 103° |
| 2026-05-07 12:10 | 40.73259 | 5.94708 | 36984 ft | 502 kts | 103° |
| 2026-05-07 12:10 | 40.72319 | 6.03828 | 36994 ft | 502 kts | 103° |
| 2026-05-07 12:11 | 40.71375 | 6.12950 | 36970 ft | 503 kts | 104° |
| 2026-05-07 12:11 | 40.70417 | 6.22092 | 36976 ft | 504 kts | 104° |
| 2026-05-07 12:12 | 40.69450 | 6.31262 | 36979 ft | 506 kts | 104° |
| 2026-05-07 12:12 | 40.68466 | 6.40437 | 36985 ft | 506 kts | 104° |
| 2026-05-07 12:13 | 40.67474 | 6.49620 | 36970 ft | 507 kts | 104° |
| 2026-05-07 12:13 | 40.66474 | 6.58834 | 36973 ft | 509 kts | 104° |
| 2026-05-07 12:14 | 40.65460 | 6.68078 | 36981 ft | 510 kts | 104° |
| 2026-05-07 12:14 | 40.64446 | 6.77323 | 36984 ft | 511 kts | 104° |
| 2026-05-07 12:15 | 40.63423 | 6.86591 | 36960 ft | 512 kts | 104° |
| 2026-05-07 12:15 | 40.62396 | 6.95878 | 36971 ft | 513 kts | 105° |
| 2026-05-07 12:16 | 40.61346 | 7.05176 | 36975 ft | 514 kts | 105° |
| 2026-05-07 12:16 | 40.60283 | 7.14485 | 36981 ft | 515 kts | 105° |
| 2026-05-07 12:17 | 40.59224 | 7.23808 | 36983 ft | 515 kts | 105° |
| 2026-05-07 12:17 | 40.58164 | 7.33065 | 36989 ft | 515 kts | 105° |
| 2026-05-07 12:18 | 40.57083 | 7.42387 | 36993 ft | 515 kts | 105° |
| 2026-05-07 12:18 | 40.56710 | 7.51861 | 36994 ft | 526 kts | 89° |
| 2026-05-07 12:19 | 40.57538 | 7.61445 | 36961 ft | 528 kts | 87° |
| 2026-05-07 12:19 | 40.58375 | 7.71049 | 36964 ft | 529 kts | 88° |
| 2026-05-07 12:20 | 40.59195 | 7.80690 | 36963 ft | 531 kts | 88° |
| 2026-05-07 12:20 | 40.59919 | 7.89325 | 36966 ft | 531 kts | 88° |
| 2026-05-07 12:21 | 40.60722 | 7.98996 | 36943 ft | 532 kts | 88° |
| 2026-05-07 12:21 | 40.61528 | 8.08707 | 36948 ft | 534 kts | 88° |
| 2026-05-07 12:22 | 40.61945 | 8.18425 | 36965 ft | 527 kts | 100° |
| 2026-05-07 12:22 | 40.60532 | 8.27656 | 36956 ft | 509 kts | 118° |
| 2026-05-07 12:22 | 40.59175 | 8.31894 | 36957 ft | 498 kts | 127° |
| 2026-05-07 12:23 | 40.57462 | 8.35805 | 36932 ft | 491 kts | 133° |
| 2026-05-07 12:23 | 40.53838 | 8.43473 | 36950 ft | 495 kts | 133° |
| 2026-05-07 12:24 | 40.50205 | 8.51170 | 36948 ft | 496 kts | 133° |
| 2026-05-07 12:24 | 40.46568 | 8.58867 | 36966 ft | 496 kts | 133° |
| 2026-05-07 12:25 | 40.42917 | 8.66562 | 36969 ft | 497 kts | 133° |
| 2026-05-07 12:25 | 40.39264 | 8.74256 | 36959 ft | 497 kts | 133° |
| 2026-05-07 12:26 | 40.35596 | 8.81952 | 36945 ft | 498 kts | 133° |
| 2026-05-07 12:26 | 40.31917 | 8.89642 | 36955 ft | 498 kts | 133° |
| 2026-05-07 12:27 | 40.28232 | 8.97341 | 36966 ft | 499 kts | 133° |
| 2026-05-07 12:27 | 40.24540 | 9.05040 | 36962 ft | 499 kts | 133° |
| 2026-05-07 12:28 | 40.20835 | 9.12725 | 36947 ft | 500 kts | 134° |
| 2026-05-07 12:28 | 40.17114 | 9.20425 | 36955 ft | 501 kts | 134° |
| 2026-05-07 12:29 | 40.13380 | 9.28140 | 36967 ft | 502 kts | 134° |
| 2026-05-07 12:29 | 40.09637 | 9.35846 | 36944 ft | 503 kts | 134° |
| 2026-05-07 12:30 | 40.05861 | 9.43605 | 36979 ft | 508 kts | 133° |
| 2026-05-07 12:30 | 40.02088 | 9.51371 | 36966 ft | 509 kts | 133° |
| 2026-05-07 12:31 | 39.98273 | 9.59190 | 36982 ft | 512 kts | 134° |
| 2026-05-07 12:31 | 39.94429 | 9.67021 | 37001 ft | 514 kts | 134° |
| 2026-05-07 12:32 | 39.90573 | 9.74863 | 37005 ft | 514 kts | 134° |
| 2026-05-07 12:32 | 39.86716 | 9.82700 | 37017 ft | 514 kts | 134° |
| 2026-05-07 12:33 | 39.80907 | 9.94477 | 36983 ft | 518 kts | 134° |
| 2026-05-07 12:33 | 39.76991 | 10.02374 | 36985 ft | 520 kts | 134° |
| 2026-05-07 12:34 | 39.73073 | 10.10274 | 36993 ft | 520 kts | 134° |
| 2026-05-07 12:34 | 39.69143 | 10.18166 | 36995 ft | 520 kts | 134° |
| 2026-05-07 12:35 | 39.65206 | 10.26047 | 36976 ft | 520 kts | 134° |
| 2026-05-07 12:35 | 39.61264 | 10.33923 | 36979 ft | 521 kts | 134° |
| 2026-05-07 12:36 | 39.57977 | 10.40474 | 36988 ft | 521 kts | 134° |
| 2026-05-07 12:36 | 39.53382 | 10.49615 | 36969 ft | 520 kts | 135° |
| 2026-05-07 12:37 | 39.50069 | 10.56187 | 36992 ft | 520 kts | 135° |
| 2026-05-07 12:37 | 39.46114 | 10.64020 | 36971 ft | 519 kts | 135° |
| 2026-05-07 12:38 | 39.42183 | 10.71787 | 36981 ft | 519 kts | 135° |
| 2026-05-07 12:38 | 39.38229 | 10.79579 | 36983 ft | 518 kts | 135° |
| 2026-05-07 12:39 | 39.34264 | 10.87358 | 36983 ft | 518 kts | 135° |
| 2026-05-07 12:39 | 39.30304 | 10.95130 | 36981 ft | 518 kts | 135° |
| 2026-05-07 12:40 | 39.26345 | 11.02887 | 36975 ft | 517 kts | 135° |
| 2026-05-07 12:40 | 39.22384 | 11.10617 | 36981 ft | 516 kts | 135° |
| 2026-05-07 12:41 | 39.18426 | 11.18307 | 36980 ft | 514 kts | 135° |
| 2026-05-07 12:41 | 39.14467 | 11.25984 | 36980 ft | 514 kts | 135° |
| 2026-05-07 12:42 | 39.10504 | 11.33648 | 36948 ft | 513 kts | 135° |
| 2026-05-07 12:42 | 39.06546 | 11.41307 | 36962 ft | 513 kts | 135° |
| 2026-05-07 12:43 | 39.02588 | 11.48956 | 36964 ft | 512 kts | 135° |
| 2026-05-07 12:43 | 38.98660 | 11.56518 | 36944 ft | 511 kts | 135° |
| 2026-05-07 12:44 | 38.94673 | 11.64148 | 36959 ft | 510 kts | 135° |
| 2026-05-07 12:44 | 38.90761 | 11.71689 | 36938 ft | 511 kts | 134° |
| 2026-05-07 12:45 | 38.86863 | 11.79322 | 36945 ft | 511 kts | 133° |
| 2026-05-07 12:45 | 38.82962 | 11.86948 | 36947 ft | 511 kts | 134° |
| 2026-05-07 12:46 | 38.79044 | 11.94558 | 36949 ft | 511 kts | 134° |
| 2026-05-07 12:46 | 38.75115 | 12.02150 | 36940 ft | 511 kts | 134° |
| 2026-05-07 12:47 | 38.71190 | 12.09733 | 36915 ft | 511 kts | 133° |
| 2026-05-07 12:47 | 38.67255 | 12.17315 | 36931 ft | 511 kts | 133° |
| 2026-05-07 12:48 | 38.63315 | 12.24876 | 36933 ft | 510 kts | 133° |
| 2026-05-07 12:48 | 38.59380 | 12.32427 | 36934 ft | 510 kts | 133° |
| 2026-05-07 12:49 | 38.55444 | 12.39969 | 36930 ft | 510 kts | 133° |
| 2026-05-07 12:49 | 38.51493 | 12.47506 | 36901 ft | 511 kts | 132° |
| 2026-05-07 12:50 | 38.47528 | 12.55047 | 36900 ft | 512 kts | 132° |
| 2026-05-07 12:50 | 38.43545 | 12.62605 | 36863 ft | 513 kts | 132° |
| 2026-05-07 12:51 | 38.39580 | 12.70118 | 36895 ft | 514 kts | 132° |
| 2026-05-07 12:51 | 38.35586 | 12.77682 | 36887 ft | 515 kts | 132° |
| 2026-05-07 12:52 | 38.31579 | 12.85249 | 36881 ft | 516 kts | 132° |
| 2026-05-07 12:52 | 38.27559 | 12.92820 | 36881 ft | 516 kts | 132° |
| 2026-05-07 12:53 | 38.23529 | 13.00378 | 36882 ft | 517 kts | 132° |
| 2026-05-07 12:53 | 38.19488 | 13.07947 | 36886 ft | 517 kts | 132° |
| 2026-05-07 12:54 | 38.15450 | 13.15502 | 36867 ft | 515 kts | 132° |
| 2026-05-07 12:54 | 38.11388 | 13.23075 | 36407 ft | 520 kts | 133° |
| 2026-05-07 12:55 | 38.09335 | 13.26889 | 35019 ft | 526 kts | 132° |
| 2026-05-07 12:55 | 38.07264 | 13.30735 | 33721 ft | 529 kts | 133° |
| 2026-05-07 12:55 | 38.05187 | 13.34596 | 32401 ft | 529 kts | 132° |
| 2026-05-07 12:55 | 38.03119 | 13.38439 | 31176 ft | 526 kts | 132° |
| 2026-05-07 12:56 | 38.01065 | 13.42258 | 29993 ft | 522 kts | 132° |
| 2026-05-07 12:56 | 37.99032 | 13.46040 | 28655 ft | 516 kts | 131° |
| 2026-05-07 12:56 | 37.97022 | 13.49772 | 27466 ft | 508 kts | 131° |
| 2026-05-07 12:56 | 37.95063 | 13.53406 | 26853 ft | 492 kts | 131° |
| 2026-05-07 12:57 | 37.93126 | 13.56977 | 26051 ft | 492 kts | 131° |
| 2026-05-07 12:57 | 37.91178 | 13.60543 | 25282 ft | 491 kts | 131° |
| 2026-05-07 12:57 | 37.89239 | 13.64094 | 24525 ft | 490 kts | 130° |
| 2026-05-07 12:57 | 37.87502 | 13.67824 | 23769 ft | 494 kts | 121° |
| 2026-05-07 12:58 | 37.86171 | 13.71834 | 23010 ft | 493 kts | 116° |
| 2026-05-07 12:58 | 37.84634 | 13.75627 | 21843 ft | 475 kts | 129° |
| 2026-05-07 12:58 | 37.82684 | 13.78921 | 20697 ft | 463 kts | 132° |
| 2026-05-07 12:58 | 37.80734 | 13.82115 | 19595 ft | 455 kts | 132° |
| 2026-05-07 12:59 | 37.78810 | 13.85237 | 18619 ft | 445 kts | 132° |
| 2026-05-07 12:59 | 37.76950 | 13.88243 | 18132 ft | 423 kts | 132° |
| 2026-05-07 12:59 | 37.75177 | 13.91112 | 17586 ft | 405 kts | 132° |
| 2026-05-07 12:59 | 37.73479 | 13.93858 | 17110 ft | 389 kts | 132° |
| 2026-05-07 13:00 | 37.71814 | 13.96543 | 16606 ft | 388 kts | 133° |
| 2026-05-07 13:00 | 37.70154 | 13.99217 | 16089 ft | 385 kts | 133° |
| 2026-05-07 13:00 | 37.68501 | 14.01878 | 15115 ft | 386 kts | 133° |
| 2026-05-07 13:00 | 37.66845 | 14.04541 | 14169 ft | 384 kts | 132° |
| 2026-05-07 13:01 | 37.65237 | 14.07134 | 13506 ft | 374 kts | 131° |
| 2026-05-07 13:01 | 37.63659 | 14.09687 | 12951 ft | 365 kts | 131° |
| 2026-05-07 13:01 | 37.62096 | 14.12202 | 12399 ft | 364 kts | 134° |
| 2026-05-07 13:01 | 37.60535 | 14.14707 | 11845 ft | 363 kts | 131° |
| 2026-05-07 13:02 | 37.58975 | 14.17208 | 11275 ft | 362 kts | 133° |
| 2026-05-07 13:02 | 37.57419 | 14.19703 | 10744 ft | 360 kts | 131° |
| 2026-05-07 13:02 | 37.55903 | 14.22135 | 10601 ft | 346 kts | 133° |
| 2026-05-07 13:02 | 37.54446 | 14.24480 | 10479 ft | 333 kts | 131° |
| 2026-05-07 13:03 | 37.53052 | 14.26726 | 10351 ft | 315 kts | 133° |
| 2026-05-07 13:03 | 37.51738 | 14.28844 | 9975 ft | 301 kts | 133° |
| 2026-05-07 13:03 | 37.50467 | 14.30883 | 9714 ft | 293 kts | 132° |
| 2026-05-07 13:03 | 37.49200 | 14.32900 | 9584 ft | 292 kts | 132° |
| 2026-05-07 13:04 | 37.47939 | 14.34907 | 9454 ft | 291 kts | 134° |
| 2026-05-07 13:04 | 37.46672 | 14.36920 | 8938 ft | 298 kts | 133° |
| 2026-05-07 13:04 | 37.45392 | 14.38959 | 8472 ft | 296 kts | 133° |
| 2026-05-07 13:04 | 37.44156 | 14.40936 | 8198 ft | 277 kts | 130° |
| 2026-05-07 13:05 | 37.43018 | 14.42763 | 8068 ft | 254 kts | 130° |
| 2026-05-07 13:05 | 37.42079 | 14.44534 | 7964 ft | 238 kts | 118° |
| 2026-05-07 13:05 | 37.41605 | 14.46536 | 7798 ft | 243 kts | 102° |
| 2026-05-07 13:05 | 37.41643 | 14.48655 | 7462 ft | 242 kts | 87° |
| 2026-05-07 13:06 | 37.41839 | 14.50743 | 7153 ft | 239 kts | 87° |
| 2026-05-07 13:06 | 37.42027 | 14.52809 | 6866 ft | 237 kts | 88° |
| 2026-05-07 13:06 | 37.42211 | 14.54874 | 6575 ft | 237 kts | 89° |
| 2026-05-07 13:06 | 37.42395 | 14.56924 | 6308 ft | 234 kts | 86° |
| 2026-05-07 13:07 | 37.42574 | 14.58956 | 6000 ft | 232 kts | 89° |
| 2026-05-07 13:07 | 37.42748 | 14.60929 | 5699 ft | 222 kts | 86° |
| 2026-05-07 13:07 | 37.42916 | 14.62808 | 5441 ft | 211 kts | 88° |
| 2026-05-07 13:07 | 37.43075 | 14.64597 | 5191 ft | 201 kts | 86° |
| 2026-05-07 13:08 | 37.43227 | 14.66308 | 4937 ft | 193 kts | 86° |
| 2026-05-07 13:08 | 37.43370 | 14.67925 | 4783 ft | 180 kts | 85° |
| 2026-05-07 13:08 | 37.43493 | 14.69425 | 4653 ft | 161 kts | 88° |
| 2026-05-07 13:08 | 37.43602 | 14.70747 | 4503 ft | 148 kts | 88° |
| 2026-05-07 13:09 | 37.43708 | 14.72006 | 4390 ft | 145 kts | 87° |
| 2026-05-07 13:09 | 37.43814 | 14.73245 | 4246 ft | 142 kts | 86° |
| 2026-05-07 13:09 | 37.43919 | 14.74461 | 4136 ft | 141 kts | 88° |
| 2026-05-07 13:09 | 37.44025 | 14.75689 | 4018 ft | 140 kts | 88° |
| 2026-05-07 13:10 | 37.44131 | 14.76904 | 3885 ft | 141 kts | 87° |
| 2026-05-07 13:10 | 37.44237 | 14.78128 | 3771 ft | 140 kts | 87° |
| 2026-05-07 13:10 | 37.44343 | 14.79355 | 3639 ft | 139 kts | 86° |
| 2026-05-07 13:10 | 37.44447 | 14.80554 | 3531 ft | 137 kts | 87° |
| 2026-05-07 13:11 | 37.44552 | 14.81760 | 3408 ft | 138 kts | 87° |
| 2026-05-07 13:11 | 37.44655 | 14.82955 | 3289 ft | 136 kts | 88° |
| 2026-05-07 13:11 | 37.44761 | 14.84184 | 3223 ft | 140 kts | 88° |
| 2026-05-07 13:11 | 37.44867 | 14.85412 | 3103 ft | 142 kts | 87° |
| 2026-05-07 13:12 | 37.44972 | 14.86622 | 2949 ft | 138 kts | 86° |
| 2026-05-07 13:12 | 37.45076 | 14.87835 | 2777 ft | 140 kts | 86° |
| 2026-05-07 13:12 | 37.45179 | 14.89035 | 2592 ft | 138 kts | 85° |
| 2026-05-07 13:12 | 37.45282 | 14.90239 | 2385 ft | 141 kts | 85° |
| 2026-05-07 13:13 | 37.45386 | 14.91453 | 2204 ft | 140 kts | 85° |
| 2026-05-07 13:13 | 37.45491 | 14.92669 | 2011 ft | 138 kts | 86° |
| 2026-05-07 13:13 | 37.45592 | 14.93850 | 1828 ft | 138 kts | 85° |
| 2026-05-07 13:13 | 37.45693 | 14.95035 | 1648 ft | 134 kts | 83° |
| 2026-05-07 13:14 | 37.45792 | 14.96195 | 1472 ft | 137 kts | 85° |
| 2026-05-07 13:14 | 37.45894 | 14.97386 | 1270 ft | 138 kts | 85° |
| 2026-05-07 13:14 | 37.45997 | 14.98599 | 1096 ft | 135 kts | 83° |
| 2026-05-07 13:14 | 37.46099 | 14.99788 | 911 ft | 137 kts | 83° |
| 2026-05-07 13:15 | 37.46197 | 15.00988 | 842 ft | 137 kts | 81° |
| 2026-05-07 13:15 | 37.46284 | 15.02182 | 643 ft | 133 kts | 78° |
| 2026-05-07 13:15 | 37.46383 | 15.03392 | 426 ft | 135 kts | 77° |
| 2026-05-07 13:15 | 37.46501 | 15.04581 | 204 ft | 137 kts | 79° |
| 2026-05-07 13:16 | 37.46599 | 15.05737 | 82 ft | 124 kts | 77° |
| 2026-05-07 13:16 | 37.46682 | 15.06679 | 51 ft | 80 kts | 82° |
| 2026-05-07 13:16 | 37.46713 | 15.07035 | 52 ft | 23 kts | 84° |
| 2026-05-07 13:16 | 37.46728 | 15.07220 | 51 ft | 20 kts | 83° |
| 2026-05-07 13:17 | 37.46744 | 15.07382 | 52 ft | 18 kts | 86° |
| 2026-05-07 13:17 | 37.46761 | 15.07537 | 52 ft | 17 kts | 76° |
| 2026-05-07 13:17 | 37.46801 | 15.07669 | 51 ft | 16 kts | 64° |
| 2026-05-07 13:17 | 37.46855 | 15.07773 | 52 ft | 11 kts | 54° |
| 2026-05-07 13:18 | 37.46922 | 15.07793 | 52 ft | 13 kts | 322° |
| 2026-05-07 13:18 | 37.46935 | 15.07723 | 52 ft | 9 kts | 266° |
| 2026-05-07 13:18 | 37.46928 | 15.07627 | 52 ft | 13 kts | 264° |
| 2026-05-07 13:18 | 37.46914 | 15.07476 | 51 ft | 13 kts | 264° |
| 2026-05-07 13:19 | 37.46903 | 15.07347 | 51 ft | 17 kts | 264° |
| 2026-05-07 13:19 | 37.46895 | 15.07243 | 51 ft | 19 kts | 264° |
| 2026-05-07 13:19 | 37.46885 | 15.07126 | 51 ft | 12 kts | 264° |
| 2026-05-07 13:19 | 37.46875 | 15.07000 | 51 ft | 17 kts | 264° |
| 2026-05-07 13:20 | 37.46865 | 15.06891 | 51 ft | 11 kts | 264° |
| 2026-05-07 13:20 | 37.46856 | 15.06774 | 51 ft | 15 kts | 264° |
| 2026-05-07 13:20 | 37.46847 | 15.06669 | 51 ft | 10 kts | 264° |
| 2026-05-07 13:20 | 37.46838 | 15.06568 | 51 ft | 14 kts | 264° |
| 2026-05-07 13:21 | 37.46841 | 15.06496 | 50 ft | 8 kts | 312° |
| 2026-05-07 13:21 | 37.46897 | 15.06505 | 51 ft | 6 kts | 18° |
| 2026-05-07 13:21 | 37.46927 | 15.06519 | 51 ft | 4 kts | 19° |
| 2026-05-07 13:21 | 37.46941 | 15.06524 | 51 ft | 0 kts | 19° |